METAR Data
IDs: Format: Raw Decoded Include TAF

Data at: 1235 UTC 23 Jun 2021

KPAE 231153Z 19003KT 9SM OVC002 13/13 A2990 RMK AO2 SLP123 T01280128 10150 20117 51013

KPAE 231122Z 2312/2412 VRB03KT 5SM BR OVC003
  TEMPO 2312/2316 1SM BR VV002
  FM231700 20006KT P6SM BKN008
  FM231900 25006KT P6SM SCT250
  FM240100 36005KT P6SM SCT250


KAWO 231231Z AUTO 00000KT 1/4SM FG OVC003 12/11 A2991 RMK AO2
No TAF found for KAWO

KBFI 231153Z 17009KT 10SM OVC009 13/12 A2991 RMK AO2 SLP126 T01330122 10200 20133 51014

KBFI 231122Z 2312/2412 19006KT P6SM OVC008
  FM231700 21005KT P6SM BKN013
  FM231900 24005KT P6SM SCT250


KRNT 231153Z AUTO 23004KT 10SM OVC013 14/11 A2991 RMK AO2 SLP132 T01440111 10200 20144 51013
No TAF found for KRNT

KSEA 231153Z 23007KT 10SM OVC005 13/12 A2991 RMK AO2 SLP132 T01280117 10167 20128 51013

KSEA 231122Z 2312/2418 21008KT P6SM OVC005
  FM231700 21006KT P6SM BKN010
  FM231900 25006KT P6SM SCT250
  FM241300 21004KT P6SM SCT008
  TEMPO 2413/2416 BKN008